sensor_id;sensor_type;location;lat;lon;timestamp;pressure;altitude;pressure_sealevel;temperature;humidity
68199;BME280;55021;51.554;17.044;2023-12-29T00:30:27;100345.28;;;5.75;96.98
68199;BME280;55021;51.554;17.044;2023-12-29T00:45:31;100337.09;;;6.35;89.90
68199;BME280;55021;51.554;17.044;2023-12-29T01:00:34;100339.47;;;6.19;90.13
68199;BME280;55021;51.554;17.044;2023-12-29T01:15:36;100329.03;;;6.26;90.10
68199;BME280;55021;51.554;17.044;2023-12-29T01:30:39;100324.22;;;6.29;90.27
68199;BME280;55021;51.554;17.044;2023-12-29T02:00:45;100301.25;;;6.15;91.29
68199;BME280;55021;51.554;17.044;2023-12-29T02:15:47;100293.81;;;5.98;92.62
68199;BME280;55021;51.554;17.044;2023-12-29T02:30:54;100286.78;;;6.16;91.79
68199;BME280;55021;51.554;17.044;2023-12-29T02:45:58;100258.06;;;6.36;89.94
68199;BME280;55021;51.554;17.044;2023-12-29T03:01:01;100242.03;;;6.44;89.54
68199;BME280;55021;51.554;17.044;2023-12-29T03:16:03;100214.91;;;6.84;87.17
68199;BME280;55021;51.554;17.044;2023-12-29T03:31:06;100206.19;;;6.34;89.13
68199;BME280;55021;51.554;17.044;2023-12-29T03:46:23;100213.09;;;6.65;88.73
68199;BME280;55021;51.554;17.044;2023-12-29T04:01:25;100049.19;;;6.24;85.38
68199;BME280;55021;51.554;17.044;2023-12-29T04:16:42;100181.94;;;6.63;86.78
68199;BME280;55021;51.554;17.044;2023-12-29T04:31:45;100069.91;;;6.24;84.93
68199;BME280;55021;51.554;17.044;2023-12-29T04:46:48;100151.31;;;7.10;84.34
68199;BME280;55021;51.554;17.044;2023-12-29T05:01:50;100089.88;;;6.40;85.96
68199;BME280;55021;51.554;17.044;2023-12-29T05:16:55;100161.72;;;6.96;85.00
68199;BME280;55021;51.554;17.044;2023-12-29T05:31:58;100166.50;;;7.11;84.19
68199;BME280;55021;51.554;17.044;2023-12-29T05:47:00;100119.03;;;6.45;86.32
68199;BME280;55021;51.554;17.044;2023-12-29T06:02:06;100121.34;;;6.86;87.24
68199;BME280;55021;51.554;17.044;2023-12-29T06:17:08;100101.16;;;7.00;86.14
68199;BME280;55021;51.554;17.044;2023-12-29T06:32:10;100033.72;;;6.45;87.77
68199;BME280;55021;51.554;17.044;2023-12-29T06:47:13;100116.81;;;7.51;85.19
68199;BME280;55021;51.554;17.044;2023-12-29T07:02:16;100055.00;;;7.57;82.64
68199;BME280;55021;51.554;17.044;2023-12-29T07:17:18;100115.84;;;8.05;82.46
68199;BME280;55021;51.554;17.044;2023-12-29T07:32:20;100050.06;;;7.88;82.56
68199;BME280;55021;51.554;17.044;2023-12-29T07:47:24;100084.81;;;7.56;85.44
68199;BME280;55021;51.554;17.044;2023-12-29T08:02:29;100033.09;;;7.43;85.77
68199;BME280;55021;51.554;17.044;2023-12-29T08:17:32;100087.53;;;7.91;85.95
68199;BME280;55021;51.554;17.044;2023-12-29T08:32:34;100093.50;;;8.56;81.50
68199;BME280;55021;51.554;17.044;2023-12-29T08:47:36;100089.34;;;8.43;81.59
68199;BME280;55021;51.554;17.044;2023-12-29T09:02:39;100119.88;;;8.62;80.95
68199;BME280;55021;51.554;17.044;2023-12-29T09:17:43;100123.47;;;9.63;77.59
68199;BME280;55021;51.554;17.044;2023-12-29T09:32:51;100137.91;;;9.96;76.88
68199;BME280;55021;51.554;17.044;2023-12-29T09:48:11;100030.16;;;8.92;77.82
68199;BME280;55021;51.554;17.044;2023-12-29T10:03:18;100113.78;;;9.53;78.80
68199;BME280;55021;51.554;17.044;2023-12-29T10:18:36;100078.59;;;9.45;78.16
68199;BME280;55021;51.554;17.044;2023-12-29T10:33:48;100110.00;;;10.04;76.93
68199;BME280;55021;51.554;17.044;2023-12-29T10:48:53;100106.22;;;9.64;78.35
68199;BME280;55021;51.554;17.044;2023-12-29T11:04:01;100008.16;;;9.13;77.56
68199;BME280;55021;51.554;17.044;2023-12-29T11:19:04;100058.19;;;9.99;75.83
68199;BME280;55021;51.554;17.044;2023-12-29T11:34:12;100038.44;;;10.14;74.59
68199;BME280;55021;51.554;17.044;2023-12-29T11:49:15;100044.28;;;10.50;73.51
68199;BME280;55021;51.554;17.044;2023-12-29T12:04:35;100049.75;;;10.26;74.01
68199;BME280;55021;51.554;17.044;2023-12-29T12:19:37;100038.56;;;10.13;75.17
68199;BME280;55021;51.554;17.044;2023-12-29T12:34:41;100050.78;;;10.09;75.57
68199;BME280;55021;51.554;17.044;2023-12-29T12:49:44;99983.91;;;9.77;75.12
68199;BME280;55021;51.554;17.044;2023-12-29T13:04:49;100039.59;;;10.20;75.27
68199;BME280;55021;51.554;17.044;2023-12-29T13:19:57;99965.44;;;10.13;74.32
68199;BME280;55021;51.554;17.044;2023-12-29T13:35:01;100014.50;;;10.42;74.63
68199;BME280;55021;51.554;17.044;2023-12-29T13:50:09;100019.09;;;9.93;75.36
68199;BME280;55021;51.554;17.044;2023-12-29T14:05:18;100013.00;;;9.75;75.00
68199;BME280;55021;51.554;17.044;2023-12-29T14:20:40;100037.06;;;10.02;74.69
68199;BME280;55021;51.554;17.044;2023-12-29T14:35:45;100026.88;;;9.80;74.97
68199;BME280;55021;51.554;17.044;2023-12-29T14:50:51;99997.75;;;9.42;75.32
68199;BME280;55021;51.554;17.044;2023-12-29T15:05:57;99966.28;;;10.21;70.28
68199;BME280;55021;51.554;17.044;2023-12-29T15:21:04;100017.56;;;10.47;70.64
68199;BME280;55021;51.554;17.044;2023-12-29T15:36:09;100014.47;;;10.58;69.33
68199;BME280;55021;51.554;17.044;2023-12-29T15:51:19;100002.66;;;10.35;71.05
68199;BME280;55021;51.554;17.044;2023-12-29T16:06:26;100000.69;;;10.84;69.66
68199;BME280;55021;51.554;17.044;2023-12-29T16:21:35;100001.28;;;10.55;70.96
68199;BME280;55021;51.554;17.044;2023-12-29T16:36:38;100012.28;;;11.09;68.82
68199;BME280;55021;51.554;17.044;2023-12-29T16:51:40;99984.78;;;10.65;70.31
68199;BME280;55021;51.554;17.044;2023-12-29T17:06:43;99995.59;;;10.89;70.21
68199;BME280;55021;51.554;17.044;2023-12-29T17:21:45;99995.50;;;10.74;70.55
68199;BME280;55021;51.554;17.044;2023-12-29T17:36:47;99982.47;;;10.46;72.44
68199;BME280;55021;51.554;17.044;2023-12-29T17:51:49;99985.38;;;10.44;72.25
68199;BME280;55021;51.554;17.044;2023-12-29T18:06:52;99985.78;;;10.09;73.54
68199;BME280;55021;51.554;17.044;2023-12-29T18:21:55;99972.41;;;9.99;74.36
68199;BME280;55021;51.554;17.044;2023-12-29T18:37:10;99883.25;;;9.49;74.60
68199;BME280;55021;51.554;17.044;2023-12-29T18:52:13;99962.72;;;10.21;74.11
68199;BME280;55021;51.554;17.044;2023-12-29T19:07:36;99857.53;;;8.97;76.33
68199;BME280;55021;51.554;17.044;2023-12-29T19:22:41;99980.88;;;9.88;75.89
68199;BME280;55021;51.554;17.044;2023-12-29T19:53:46;100003.72;;;9.78;76.88
68199;BME280;55021;51.554;17.044;2023-12-29T20:08:50;100005.75;;;9.76;76.33
68199;BME280;55021;51.554;17.044;2023-12-29T20:23:53;99991.03;;;9.62;77.12
68199;BME280;55021;51.554;17.044;2023-12-29T20:38:56;99976.44;;;9.39;78.57
68199;BME280;55021;51.554;17.044;2023-12-29T20:53:59;99985.94;;;9.67;78.28
68199;BME280;55021;51.554;17.044;2023-12-29T21:09:02;99908.59;;;9.97;74.73
68199;BME280;55021;51.554;17.044;2023-12-29T21:24:05;99974.84;;;10.57;73.91
68199;BME280;55021;51.554;17.044;2023-12-29T21:54:48;99949.84;;;10.31;76.77
68199;BME280;55021;51.554;17.044;2023-12-29T22:09:50;99919.66;;;10.34;76.45
68199;BME280;55021;51.554;17.044;2023-12-29T22:24:53;99925.31;;;10.24;77.17
68199;BME280;55021;51.554;17.044;2023-12-29T22:39:55;99889.38;;;10.39;74.94
68199;BME280;55021;51.554;17.044;2023-12-29T22:54:58;99902.38;;;10.90;74.23
68199;BME280;55021;51.554;17.044;2023-12-29T23:10:01;99852.66;;;10.59;74.16
68199;BME280;55021;51.554;17.044;2023-12-29T23:25:03;99881.03;;;10.87;74.68
68199;BME280;55021;51.554;17.044;2023-12-29T23:40:07;99822.91;;;10.51;74.56
68199;BME280;55021;51.554;17.044;2023-12-29T23:55:09;99858.94;;;10.59;75.72
